Time;durP1;ratioP1;P1;durP2;ratioP2;P2;SDS_P1;SDS_P2;PMS_P1;PMS_P2;Temp;Humidity;BMP_temperature;BMP_pressure;BME280_temperature;BME280_humidity;BME280_pressure;Samples;Min_cycle;Max_cycle;Signal;HPM_P1;HPM_P2
2022/11/22 00:02:15;;;;;;;10.40;2.70;;;8.10;99.90;;;;;;5056345;28;20519;-61
2022/11/22 00:04:40;;;;;;;6.97;2.37;;;7.90;99.90;;;;;;5061807;28;20185;-60
2022/11/22 00:07:07;;;;;;;6.03;2.57;;;7.90;99.90;;;;;;5057566;28;20193;-61
2022/11/22 00:09:32;;;;;;;14.47;2.33;;;7.90;99.90;;;;;;5054144;28;20189;-60
2022/11/22 00:11:58;;;;;;;10.43;2.27;;;7.90;99.90;;;;;;5065535;28;20213;-61
2022/11/22 00:14:24;;;;;;;5.60;2.87;;;7.90;99.90;;;;;;5054399;28;20671;-61
2022/11/22 00:16:50;;;;;;;2.27;1.90;;;7.90;99.90;;;;;;5056329;28;20182;-61
2022/11/22 00:19:15;;;;;;;4.97;2.33;;;7.90;99.90;;;;;;5055270;28;20190;-61
2022/11/22 00:21:41;;;;;;;6.83;2.53;;;7.80;99.90;;;;;;5054127;28;20205;-61
2022/11/22 00:24:07;;;;;;;3.33;1.70;;;7.70;99.90;;;;;;5062231;28;20201;-63
2022/11/22 00:26:33;;;;;;;7.30;2.03;;;7.80;99.90;;;;;;5052674;28;20255;-61
2022/11/22 00:28:58;;;;;;;10.30;2.63;;;7.70;99.90;;;;;;5055923;28;20217;-61
2022/11/22 00:31:24;;;;;;;2.47;1.30;;;7.70;99.90;;;;;;5054379;28;20313;-61
2022/11/22 00:33:50;;;;;;;4.87;2.30;;;7.60;99.90;;;;;;5052409;28;20178;-61
2022/11/22 00:36:16;;;;;;;4.20;1.73;;;7.70;99.90;;;;;;5054047;28;20204;-62
2022/11/22 00:38:42;;;;;;;4.27;1.67;;;7.60;99.90;;;;;;5055914;28;20198;-61
2022/11/22 00:41:08;;;;;;;5.40;2.30;;;7.70;99.90;;;;;;5067601;28;20212;-61
2022/11/22 00:43:34;;;;;;;6.93;2.03;;;7.70;99.90;;;;;;5054412;28;20272;-61
2022/11/22 00:46:00;;;;;;;3.77;1.80;;;7.60;99.90;;;;;;5063268;28;20312;-61
2022/11/22 00:48:26;;;;;;;3.40;1.57;;;7.50;99.90;;;;;;5059076;28;20178;-61
2022/11/22 00:50:52;;;;;;;5.47;1.80;;;7.50;99.90;;;;;;5069952;28;20188;-61
2022/11/22 00:53:18;;;;;;;3.33;1.87;;;7.50;99.90;;;;;;5050854;28;20224;-62
2022/11/22 00:55:47;;;;;;;7.20;2.00;;;7.40;99.90;;;;;;5052277;28;20178;-61
2022/11/22 00:58:13;;;;;;;5.27;2.47;;;7.50;99.90;;;;;;5064018;28;20185;-61
2022/11/22 01:00:38;;;;;;;8.17;1.73;;;7.40;99.90;;;;;;5054590;28;20540;-61
2022/11/22 01:03:05;;;;;;;8.23;2.07;;;7.40;99.90;;;;;;5053284;28;20223;-62
2022/11/22 01:05:30;;;;;;;7.30;1.90;;;7.40;99.90;;;;;;5066560;28;20181;-61
2022/11/22 01:07:56;;;;;;;6.43;1.80;;;7.40;99.90;;;;;;5051809;28;20182;-61
2022/11/22 01:10:22;;;;;;;1.87;1.17;;;7.40;99.90;;;;;;5051954;28;20221;-62
2022/11/22 01:12:48;;;;;;;5.20;2.17;;;7.30;99.90;;;;;;5058125;28;20279;-61
2022/11/22 01:15:14;;;;;;;5.53;2.00;;;7.30;99.90;;;;;;5075569;28;20643;-62
2022/11/22 01:17:39;;;;;;;4.13;1.73;;;7.40;99.90;;;;;;5065680;28;20196;-61
2022/11/22 01:20:06;;;;;;;5.33;1.80;;;7.40;99.90;;;;;;5051824;28;20273;-61
2022/11/22 01:22:31;;;;;;;5.77;2.67;;;7.30;99.90;;;;;;5066478;28;20189;-61
2022/11/22 01:24:57;;;;;;;7.37;1.20;;;7.30;99.90;;;;;;5053078;28;20182;-61
2022/11/22 01:27:23;;;;;;;1.97;1.57;;;7.40;99.90;;;;;;5061710;28;20231;-62
2022/11/22 01:29:48;;;;;;;9.67;2.30;;;7.30;99.90;;;;;;5085185;28;20182;-61
2022/11/22 01:32:14;;;;;;;14.67;3.37;;;7.20;99.90;;;;;;5053182;28;20570;-61
2022/11/22 01:34:40;;;;;;;4.37;1.60;;;7.30;99.90;;;;;;5053360;28;20185;-61
2022/11/22 01:37:06;;;;;;;6.47;2.43;;;7.30;99.90;;;;;;5071769;28;20193;-60
2022/11/22 01:39:31;;;;;;;9.63;1.87;;;7.20;99.90;;;;;;5059348;28;20260;-61
2022/11/22 01:41:57;;;;;;;4.67;1.80;;;7.20;99.90;;;;;;5090463;28;20280;-61
2022/11/22 01:44:32;;;;;;;10.30;1.67;;;7.10;99.90;;;;;;5068109;28;20193;-61
2022/11/22 01:46:59;;;;;;;1.40;1.20;;;7.10;99.90;;;;;;5055494;28;20188;-61
2022/11/22 01:49:30;;;;;;;10.20;1.90;;;7.00;99.90;;;;;;5056517;28;20255;-61
2022/11/22 01:52:02;;;;;;;6.67;1.93;;;7.10;99.90;;;;;;5068328;28;20208;-61
2022/11/22 01:54:33;;;;;;;4.10;1.47;;;7.20;99.90;;;;;;5058432;28;20627;-61
2022/11/22 01:57:05;;;;;;;3.63;1.53;;;7.10;99.90;;;;;;5052597;28;20514;-61
2022/11/22 01:59:34;;;;;;;3.80;1.87;;;7.10;99.90;;;;;;5064895;28;20533;-61
2022/11/22 02:02:01;;;;;;;1.27;1.17;;;7.10;99.90;;;;;;5058139;28;20235;-63
2022/11/22 02:04:29;;;;;;;5.57;2.23;;;7.10;99.90;;;;;;5054025;28;20714;-62
2022/11/22 02:07:40;;;;;;;2.03;1.47;;;7.20;99.90;;;;;;5052606;28;20182;-62
2022/11/22 02:10:07;;;;;;;12.87;1.87;;;7.20;99.90;;;;;;5052675;28;20261;-62
2022/11/22 02:12:34;;;;;;;2.30;1.17;;;7.20;99.90;;;;;;5059473;28;20836;-62
2022/11/22 02:15:01;;;;;;;5.53;2.07;;;7.10;99.90;;;;;;5057454;28;20186;-62
2022/11/22 02:17:26;;;;;;;1.90;1.43;;;7.10;99.90;;;;;;5062979;28;20537;-62
2022/11/22 02:19:52;;;;;;;3.87;1.70;;;7.00;99.90;;;;;;5056726;28;20279;-62
2022/11/22 02:22:35;;;;;;;6.30;1.53;;;7.00;99.90;;;;;;5055785;28;20681;-62
2022/11/22 02:25:12;;;;;;;3.60;1.90;;;6.80;99.90;;;;;;5053845;28;20588;-62
2022/11/22 02:27:38;;;;;;;7.77;2.23;;;7.00;99.90;;;;;;5061944;28;20192;-62
2022/11/22 02:30:04;;;;;;;4.07;1.70;;;7.00;99.90;;;;;;5060661;28;20186;-61
2022/11/22 02:32:30;;;;;;;1.77;1.30;;;7.10;99.90;;;;;;5042744;28;20232;-62
2022/11/22 02:34:56;;;;;;;2.87;1.23;;;7.00;99.90;;;;;;5055140;28;20216;-62
2022/11/22 02:37:26;;;;;;;6.10;3.43;;;6.80;99.90;;;;;;5070356;28;20186;-62
2022/11/22 02:39:57;;;;;;;1.30;0.97;;;6.80;99.90;;;;;;5059539;28;20638;-62
2022/11/22 02:42:25;;;;;;;5.00;1.77;;;6.80;99.90;;;;;;5059594;28;20194;-62
2022/11/22 02:44:51;;;;;;;1.40;1.23;;;6.90;99.90;;;;;;5062799;28;20538;-62
2022/11/22 02:47:17;;;;;;;3.37;1.47;;;6.90;99.90;;;;;;5062379;28;20232;-62
2022/11/22 02:49:42;;;;;;;3.03;2.13;;;6.80;99.90;;;;;;5045940;28;20185;-60
2022/11/22 02:52:08;;;;;;;2.87;1.10;;;6.80;99.90;;;;;;5072151;28;20289;-62
2022/11/22 02:54:34;;;;;;;7.53;1.40;;;6.70;99.90;;;;;;5062854;28;20189;-62
2022/11/22 02:57:02;;;;;;;6.33;1.13;;;6.60;99.90;;;;;;5054843;28;20185;-62
2022/11/22 02:59:28;;;;;;;2.27;1.47;;;6.80;99.90;;;;;;5062763;28;20217;-62
2022/11/22 03:01:53;;;;;;;3.13;1.47;;;6.90;99.90;;;;;;5058309;28;20217;-62
2022/11/22 03:04:25;;;;;;;2.43;2.03;;;6.90;99.90;;;;;;5062528;28;20186;-63
2022/11/22 03:06:53;;;;;;;1.60;1.50;;;6.90;99.90;;;;;;5070523;28;20178;-61
2022/11/22 03:09:18;;;;;;;2.77;1.60;;;6.90;99.90;;;;;;5070454;28;20181;-62
2022/11/22 03:11:46;;;;;;;4.90;1.87;;;6.90;99.90;;;;;;5059936;28;20256;-60
2022/11/22 03:14:13;;;;;;;1.57;1.40;;;6.80;99.90;;;;;;5062890;28;20205;-61
2022/11/22 03:16:39;;;;;;;3.33;1.43;;;6.80;99.90;;;;;;5071447;28;20630;-62
2022/11/22 03:19:04;;;;;;;3.77;1.43;;;6.80;99.90;;;;;;5057446;28;20186;-61
2022/11/22 03:21:30;;;;;;;3.67;1.40;;;6.80;99.90;;;;;;5066513;28;20201;-62
2022/11/22 03:23:56;;;;;;;2.10;1.27;;;6.80;99.90;;;;;;5059767;28;20186;-61
2022/11/22 03:26:22;;;;;;;7.10;2.00;;;6.80;99.90;;;;;;5067487;28;20276;-61
2022/11/22 03:28:48;;;;;;;6.77;1.57;;;6.80;99.90;;;;;;5071800;28;20181;-61
2022/11/22 03:31:14;;;;;;;5.17;1.83;;;6.80;99.90;;;;;;5064507;28;20182;-61
2022/11/22 03:33:39;;;;;;;5.23;1.47;;;6.70;99.90;;;;;;5067531;28;20218;-61
2022/11/22 03:36:05;;;;;;;2.10;1.23;;;6.70;99.90;;;;;;5055429;28;20186;-61
2022/11/22 03:38:33;;;;;;;2.53;2.20;;;6.50;99.90;;;;;;5065316;28;20195;-61
2022/11/22 03:40:58;;;;;;;5.00;1.77;;;6.50;99.90;;;;;;5054120;28;20178;-61
2022/11/22 03:43:24;;;;;;;2.23;1.07;;;6.60;99.90;;;;;;5067713;28;20181;-61
2022/11/22 03:45:50;;;;;;;1.80;1.30;;;6.70;99.90;;;;;;5068075;28;20246;-61
2022/11/22 03:48:16;;;;;;;2.63;1.27;;;6.70;99.90;;;;;;5072267;28;20186;-61
2022/11/22 03:50:41;;;;;;;4.03;1.47;;;6.70;99.90;;;;;;5068996;28;20821;-61
2022/11/22 03:53:07;;;;;;;4.10;1.57;;;6.70;99.90;;;;;;5054400;28;20237;-61
2022/11/22 03:55:33;;;;;;;4.23;1.73;;;6.70;99.90;;;;;;5061904;28;20189;-61
2022/11/22 03:57:59;;;;;;;3.97;1.47;;;6.70;99.90;;;;;;5066139;28;20194;-61
2022/11/22 04:00:24;;;;;;;7.33;1.63;;;6.60;99.90;;;;;;5063359;28;20182;-61
2022/11/22 04:02:50;;;;;;;5.23;1.97;;;6.60;99.90;;;;;;5053395;28;20582;-61
2022/11/22 04:05:16;;;;;;;6.80;2.23;;;6.60;99.90;;;;;;5073593;28;20731;-61
2022/11/22 04:07:42;;;;;;;1.87;1.47;;;6.50;99.90;;;;;;5054648;28;20661;-60
2022/11/22 04:10:08;;;;;;;4.47;1.60;;;6.60;99.90;;;;;;5066658;28;20181;-61
2022/11/22 04:12:34;;;;;;;1.97;1.60;;;6.50;99.90;;;;;;5067434;28;20293;-60
2022/11/22 04:15:06;;;;;;;4.03;2.07;;;6.50;99.90;;;;;;5056533;28;20177;-61
2022/11/22 04:17:43;;;;;;;2.40;1.30;;;6.50;99.90;;;;;;5054471;28;20182;-61
2022/11/22 04:23:06;;;;;;;7.80;1.77;;;6.50;99.90;;;;;;5053944;28;20200;-62
2022/11/22 04:25:34;;;;;;;2.00;1.07;;;6.50;99.90;;;;;;5053239;28;20716;-62
2022/11/22 04:28:00;;;;;;;5.63;2.00;;;6.50;99.90;;;;;;5060628;28;20178;-62
2022/11/22 04:33:11;;;;;;;4.53;2.37;;;6.50;99.90;;;;;;5057228;28;20260;-62
2022/11/22 04:35:37;;;;;;;3.90;1.93;;;6.50;99.90;;;;;;5053504;28;20627;-61
2022/11/22 04:38:03;;;;;;;3.77;1.17;;;6.50;99.90;;;;;;5064709;28;20211;-62
2022/11/22 04:40:29;;;;;;;4.43;1.83;;;6.50;99.90;;;;;;5055965;28;20182;-63
2022/11/22 04:45:39;;;;;;;2.70;1.70;;;6.50;99.90;;;;;;5060889;28;20201;-62
2022/11/22 04:48:05;;;;;;;1.30;1.20;;;6.50;99.90;;;;;;5052600;28;20178;-62
2022/11/22 04:53:16;;;;;;;5.33;1.63;;;6.60;99.90;;;;;;5055989;28;20241;-62
2022/11/22 04:55:44;;;;;;;1.97;1.77;;;6.60;99.90;;;;;;5053104;28;20186;-62
2022/11/22 04:58:10;;;;;;;3.93;2.17;;;6.70;99.90;;;;;;5053307;28;20624;-62
2022/11/22 05:00:36;;;;;;;2.90;1.97;;;6.80;99.90;;;;;;5053028;28;20635;-62
2022/11/22 05:03:03;;;;;;;3.47;1.83;;;6.80;99.90;;;;;;5052842;28;20276;-63
2022/11/22 05:05:29;;;;;;;7.93;1.93;;;6.80;99.90;;;;;;5086372;28;20192;-61
2022/11/22 05:07:57;;;;;;;6.57;1.50;;;6.70;99.90;;;;;;5065562;28;20177;-62
2022/11/22 05:10:23;;;;;;;3.10;2.13;;;6.70;99.90;;;;;;5056910;28;20178;-62
2022/11/22 05:12:49;;;;;;;5.27;1.80;;;6.60;99.90;;;;;;5042950;28;20220;-62
2022/11/22 05:15:14;;;;;;;3.83;1.60;;;6.70;99.90;;;;;;5053882;28;20209;-62
2022/11/22 05:17:40;;;;;;;7.03;1.90;;;6.70;99.90;;;;;;5058506;28;20174;-61
2022/11/22 05:20:07;;;;;;;7.83;1.90;;;6.70;99.90;;;;;;5062735;28;20189;-61
2022/11/22 05:25:17;;;;;;;4.33;2.17;;;6.60;99.90;;;;;;5070602;28;20265;-61
2022/11/22 05:27:43;;;;;;;1.90;1.80;;;6.60;99.90;;;;;;5067354;28;20631;-61
2022/11/22 05:30:09;;;;;;;5.30;2.03;;;6.70;99.90;;;;;;5064139;28;20181;-61
2022/11/22 05:32:35;;;;;;;4.03;2.37;;;6.80;99.90;;;;;;5059150;28;20205;-61
2022/11/22 05:35:01;;;;;;;3.40;2.07;;;6.80;99.90;;;;;;5072734;28;20547;-63
2022/11/22 05:37:27;;;;;;;4.73;1.90;;;6.80;99.90;;;;;;5066121;28;20189;-62
2022/11/22 05:39:53;;;;;;;2.50;2.27;;;6.80;99.90;;;;;;5051632;28;20205;-62
2022/11/22 05:42:19;;;;;;;7.47;2.10;;;6.90;99.90;;;;;;5069874;28;20740;-62
2022/11/22 05:44:45;;;;;;;2.53;2.07;;;6.90;99.90;;;;;;5064029;28;20186;-63
2022/11/22 05:47:11;;;;;;;5.67;1.80;;;7.00;99.90;;;;;;5051394;28;20186;-62
2022/11/22 05:49:37;;;;;;;3.70;1.87;;;7.00;99.90;;;;;;5067414;28;20174;-62
2022/11/22 05:52:03;;;;;;;3.97;2.47;;;7.10;99.90;;;;;;5057525;28;20224;-62
2022/11/22 05:54:29;;;;;;;4.17;1.90;;;7.10;99.90;;;;;;5052270;28;20539;-62
2022/11/22 05:56:55;;;;;;;7.60;2.20;;;7.10;99.90;;;;;;5052869;28;20264;-63
2022/11/22 05:59:21;;;;;;;3.23;2.40;;;7.20;99.90;;;;;;5051196;28;20265;-62
2022/11/22 06:01:47;;;;;;;3.37;2.20;;;7.20;99.90;;;;;;5052511;28;20213;-62
2022/11/22 06:04:13;;;;;;;5.23;2.37;;;7.10;99.90;;;;;;5063691;28;20538;-62
2022/11/22 06:06:38;;;;;;;2.77;2.17;;;7.00;99.90;;;;;;5060021;28;20169;-62
2022/11/22 06:09:04;;;;;;;3.13;2.87;;;7.10;99.90;;;;;;5060533;28;20189;-62
2022/11/22 06:11:30;;;;;;;2.80;2.13;;;7.00;99.90;;;;;;5057637;28;20256;-62
2022/11/22 06:13:58;;;;;;;6.40;2.23;;;7.10;99.90;;;;;;5055044;28;20541;-63
2022/11/22 06:16:25;;;;;;;3.63;2.27;;;7.10;99.90;;;;;;5056370;28;20627;-61
2022/11/22 06:18:52;;;;;;;3.03;2.67;;;7.20;99.90;;;;;;5066174;28;20180;-61
2022/11/22 06:21:23;;;;;;;5.87;2.47;;;7.10;99.90;;;;;;5066135;28;20173;-60
2022/11/22 06:23:53;;;;;;;2.33;2.03;;;7.10;99.90;;;;;;5064619;28;20227;-60
2022/11/22 06:26:20;;;;;;;3.53;2.90;;;7.20;99.90;;;;;;5070091;28;20182;-61
2022/11/22 06:28:47;;;;;;;2.90;2.30;;;7.20;99.90;;;;;;5056493;28;20544;-61
2022/11/22 06:31:19;;;;;;;4.80;2.43;;;7.20;99.90;;;;;;5075372;28;20189;-62
2022/11/22 06:33:45;;;;;;;2.97;2.13;;;7.30;99.90;;;;;;5055910;28;20170;-61
2022/11/22 06:36:15;;;;;;;4.47;2.73;;;7.30;99.90;;;;;;5055863;28;20243;-61
2022/11/22 06:38:42;;;;;;;3.13;2.20;;;7.30;99.90;;;;;;5055989;28;20179;-61
2022/11/22 06:41:30;;;;;;;3.23;2.60;;;7.30;99.90;;;;;;5056373;28;20190;-61
2022/11/22 06:43:56;;;;;;;6.90;2.20;;;7.20;99.90;;;;;;5061105;28;20665;-61
2022/11/22 06:46:24;;;;;;;8.83;2.93;;;7.10;99.90;;;;;;5065388;28;20272;-61
2022/11/22 06:48:50;;;;;;;2.90;2.60;;;7.10;99.90;;;;;;5061473;28;20177;-62
2022/11/22 06:51:21;;;;;;;5.17;2.70;;;7.10;99.90;;;;;;5069990;28;20548;-62
2022/11/22 06:53:48;;;;;;;3.27;2.40;;;7.20;99.90;;;;;;5061090;28;20200;-63
2022/11/22 06:56:18;;;;;;;7.27;3.30;;;7.30;99.90;;;;;;5057433;28;20288;-62
2022/11/22 06:58:44;;;;;;;4.43;2.93;;;7.40;99.90;;;;;;5055871;28;20178;-62
2022/11/22 07:01:19;;;;;;;3.90;2.47;;;7.50;99.90;;;;;;5056975;28;20697;-63
2022/11/22 07:03:46;;;;;;;5.97;3.20;;;7.40;99.90;;;;;;5058442;28;20184;-62
2022/11/22 07:06:13;;;;;;;3.97;2.80;;;7.50;99.90;;;;;;5063361;28;20182;-62
2022/11/22 07:08:39;;;;;;;3.63;2.77;;;7.50;99.90;;;;;;5054290;28;20216;-62
2022/11/22 07:11:14;;;;;;;4.23;2.37;;;7.40;99.90;;;;;;5056460;28;20210;-62
2022/11/22 07:13:40;;;;;;;3.30;2.53;;;7.40;99.90;;;;;;5059017;28;20208;-62
2022/11/22 07:16:09;;;;;;;5.10;3.33;;;7.20;99.90;;;;;;5054740;28;20174;-62
2022/11/22 07:18:34;;;;;;;5.83;3.20;;;7.10;99.90;;;;;;5065667;28;20593;-61
2022/11/22 07:21:02;;;;;;;2.53;2.33;;;7.00;99.90;;;;;;5061720;28;20312;-62
2022/11/22 07:23:29;;;;;;;4.13;2.53;;;7.10;99.90;;;;;;5054508;28;20260;-63
2022/11/22 07:25:55;;;;;;;3.60;2.10;;;7.20;99.90;;;;;;5055096;28;20186;-60
2022/11/22 07:28:20;;;;;;;3.87;3.40;;;7.40;99.90;;;;;;5061550;28;20196;-63
2022/11/22 07:30:46;;;;;;;12.30;5.77;;;7.60;99.90;;;;;;5060118;28;20228;-63
2022/11/22 07:33:12;;;;;;;5.20;2.37;;;7.60;99.90;;;;;;5054233;28;20615;-62
2022/11/22 07:35:38;;;;;;;4.23;2.20;;;7.50;99.90;;;;;;5056103;28;20639;-62
2022/11/22 07:38:04;;;;;;;3.47;2.10;;;7.50;99.90;;;;;;5061580;28;20182;-65
2022/11/22 07:40:30;;;;;;;10.63;2.53;;;7.40;99.90;;;;;;5067185;28;20182;-64
2022/11/22 07:42:55;;;;;;;3.20;2.23;;;7.50;99.90;;;;;;5056235;28;20661;-63
2022/11/22 07:45:21;;;;;;;5.17;2.37;;;7.50;99.90;;;;;;5061806;28;20189;-62
2022/11/22 07:47:47;;;;;;;4.90;2.50;;;7.50;99.90;;;;;;5063354;28;20194;-63
2022/11/22 07:50:13;;;;;;;5.47;2.67;;;7.50;99.90;;;;;;5066644;28;20240;-64
2022/11/22 07:52:39;;;;;;;7.87;3.53;;;7.50;99.90;;;;;;5062057;28;20208;-63
2022/11/22 07:55:05;;;;;;;12.50;3.40;;;7.50;99.90;;;;;;5067204;28;20698;-63
2022/11/22 07:57:31;;;;;;;4.53;3.07;;;7.40;99.90;;;;;;5088174;28;20186;-64
2022/11/22 07:59:57;;;;;;;8.13;2.30;;;7.50;99.90;;;;;;5061920;28;20185;-63
2022/11/22 08:02:23;;;;;;;5.77;3.00;;;7.60;99.90;;;;;;5064588;28;20545;-63
2022/11/22 08:04:50;;;;;;;3.97;2.13;;;7.50;99.90;;;;;;5060178;28;20185;-63
2022/11/22 08:07:16;;;;;;;4.20;2.10;;;7.50;99.90;;;;;;5057671;28;20182;-63
2022/11/22 08:09:41;;;;;;;2.90;2.10;;;7.60;99.90;;;;;;5054693;28;20702;-62
2022/11/22 08:12:07;;;;;;;2.93;2.30;;;7.70;99.90;;;;;;5073627;28;20229;-65
2022/11/22 08:14:34;;;;;;;3.30;2.27;;;7.60;99.90;;;;;;5070543;28;20217;-63
2022/11/22 08:16:59;;;;;;;3.67;2.17;;;7.70;99.90;;;;;;5063491;28;20182;-62
2022/11/22 08:19:25;;;;;;;2.80;2.20;;;7.80;99.90;;;;;;5060934;28;20193;-62
2022/11/22 08:21:51;;;;;;;4.07;3.67;;;7.80;99.90;;;;;;5057735;28;20223;-62
2022/11/22 08:24:16;;;;;;;6.43;2.57;;;7.80;99.90;;;;;;5056421;28;20547;-62
2022/11/22 08:26:43;;;;;;;7.53;2.37;;;7.80;99.90;;;;;;5053918;28;20546;-62
2022/11/22 08:29:11;;;;;;;5.40;2.97;;;7.80;99.90;;;;;;5061604;28;20642;-63
2022/11/22 08:31:37;;;;;;;3.10;2.70;;;7.80;99.90;;;;;;5067024;28;20248;-62
2022/11/22 08:34:04;;;;;;;7.33;2.57;;;7.90;99.90;;;;;;5056516;28;20648;-62
2022/11/22 08:36:30;;;;;;;6.43;3.70;;;7.90;99.90;;;;;;5054269;28;20190;-62
2022/11/22 08:38:56;;;;;;;5.23;2.90;;;7.90;99.90;;;;;;5057696;28;20643;-62
2022/11/22 08:41:22;;;;;;;4.57;2.93;;;7.90;99.90;;;;;;5062658;28;20185;-62
2022/11/22 08:43:49;;;;;;;8.47;3.50;;;7.90;99.90;;;;;;5068351;28;20188;-63
2022/11/22 08:46:15;;;;;;;2.40;2.17;;;8.10;99.90;;;;;;5061189;28;20182;-62
2022/11/22 08:48:41;;;;;;;3.00;2.07;;;8.00;99.90;;;;;;5060787;28;20188;-63
2022/11/22 08:51:08;;;;;;;5.73;2.27;;;7.90;99.90;;;;;;5057651;28;20182;-63
2022/11/22 08:53:37;;;;;;;5.17;2.03;;;7.90;99.90;;;;;;5053970;28;20209;-63
2022/11/22 08:56:04;;;;;;;3.90;2.13;;;7.90;99.90;;;;;;5053441;28;20185;-63
2022/11/22 08:58:32;;;;;;;2.60;2.10;;;8.00;99.90;;;;;;5052178;28;20238;-63
2022/11/22 09:01:09;;;;;;;4.37;1.83;;;8.00;99.90;;;;;;5052454;28;20181;-63
2022/11/22 09:03:35;;;;;;;5.20;2.20;;;8.10;99.90;;;;;;5052727;28;20213;-63
2022/11/22 09:06:06;;;;;;;5.50;2.63;;;8.20;99.90;;;;;;5065278;28;20232;-64
2022/11/22 09:08:32;;;;;;;2.40;2.20;;;8.30;99.90;;;;;;5057898;28;20533;-63
2022/11/22 09:11:02;;;;;;;1.83;1.73;;;8.40;99.90;;;;;;5057385;28;20265;-64
2022/11/22 09:13:29;;;;;;;2.87;1.93;;;8.30;99.90;;;;;;5053718;28;20224;-61
2022/11/22 09:15:59;;;;;;;2.27;1.90;;;8.40;99.90;;;;;;5053459;28;20182;-63
2022/11/22 09:18:25;;;;;;;1.70;1.60;;;8.40;99.90;;;;;;5062409;28;20186;-63
2022/11/22 09:20:57;;;;;;;2.07;1.87;;;8.50;99.90;;;;;;5085254;28;20235;-64
2022/11/22 09:23:22;;;;;;;3.13;1.77;;;8.40;99.90;;;;;;5058359;28;20562;-64
2022/11/22 09:25:56;;;;;;;8.63;2.00;;;8.40;99.90;;;;;;5062704;28;20181;-63
2022/11/22 09:28:22;;;;;;;4.10;2.37;;;8.40;99.90;;;;;;5053512;28;20231;-63
2022/11/22 09:30:47;;;;;;;2.63;2.43;;;8.40;99.90;;;;;;5040278;28;20268;-65
2022/11/22 09:33:13;;;;;;;3.17;2.83;;;8.40;99.90;;;;;;5063078;28;20572;-64
2022/11/22 09:35:38;;;;;;;3.27;1.93;;;8.40;99.90;;;;;;5066166;28;20181;-65
2022/11/22 09:38:04;;;;;;;4.33;2.20;;;8.30;99.90;;;;;;5056170;28;20209;-63
2022/11/22 09:40:30;;;;;;;3.40;2.00;;;8.40;99.90;;;;;;5053715;28;20201;-64
2022/11/22 09:43:06;;;;;;;2.47;1.77;;;8.40;99.90;;;;;;5061899;28;20189;-64
2022/11/22 09:45:36;;;;;;;2.00;1.90;;;8.50;99.90;;;;;;5061246;28;20193;-64
2022/11/22 09:48:05;;;;;;;5.33;2.13;;;8.50;99.90;;;;;;5048972;28;20253;-64
2022/11/22 09:50:58;;;;;;;2.53;1.63;;;8.50;99.90;;;;;;5056329;28;20177;-65
2022/11/22 09:53:30;;;;;;;2.77;1.83;;;8.50;99.90;;;;;;5056026;28;20201;-65
2022/11/22 09:55:59;;;;;;;5.93;1.70;;;8.60;99.90;;;;;;5053359;28;20192;-64
2022/11/22 09:58:35;;;;;;;2.60;1.40;;;8.40;99.90;;;;;;5062351;28;20209;-64
2022/11/22 10:01:12;;;;;;;2.10;1.97;;;8.50;99.90;;;;;;5052469;28;20205;-66
2022/11/22 10:03:52;;;;;;;6.07;1.87;;;8.50;99.90;;;;;;5073012;28;20180;-64
2022/11/22 10:06:30;;;;;;;3.90;1.50;;;8.50;99.90;;;;;;5052857;28;20178;-65
2022/11/22 10:09:06;;;;;;;3.47;2.37;;;8.50;99.90;;;;;;5052717;28;20173;-64
2022/11/22 10:11:35;;;;;;;3.90;1.60;;;8.50;99.90;;;;;;5065396;28;20185;-64
2022/11/22 10:14:23;;;;;;;1.93;1.83;;;8.60;99.90;;;;;;5059394;28;20259;-64
2022/11/22 10:17:15;;;;;;;1.40;1.30;;;8.80;99.90;;;;;;5052394;28;20260;-64
2022/11/22 10:19:50;;;;;;;1.80;1.70;;;8.90;99.90;;;;;;5066522;28;20651;-63
2022/11/22 10:22:16;;;;;;;5.00;1.87;;;8.90;99.90;;;;;;5057541;28;20178;-62
2022/11/22 10:24:42;;;;;;;3.13;1.80;;;8.90;99.90;;;;;;5061116;28;20204;-63
2022/11/22 10:27:14;;;;;;;3.87;1.57;;;9.00;99.90;;;;;;5076607;28;20273;-64
2022/11/22 10:30:01;;;;;;;4.30;1.20;;;9.10;99.90;;;;;;5056090;28;20300;-64
2022/11/22 10:32:41;;;;;;;7.60;2.23;;;8.90;99.90;;;;;;5052343;28;20210;-64
2022/11/22 10:35:15;;;;;;;1.43;1.33;;;9.00;99.90;;;;;;5053075;28;20186;-64
2022/11/22 10:38:14;;;;;;;2.97;1.30;;;9.00;99.90;;;;;;5060310;28;20185;-63
2022/11/22 10:40:55;;;;;;;1.50;1.40;;;9.10;99.90;;;;;;5055292;28;20261;-64
2022/11/22 10:43:46;;;;;;;3.10;1.33;;;9.20;99.90;;;;;;5052623;28;20182;-64
2022/11/22 10:46:23;;;;;;;3.27;1.67;;;9.20;99.90;;;;;;5052214;28;20186;-64
2022/11/22 10:49:13;;;;;;;1.40;1.30;;;9.30;99.90;;;;;;5051752;28;20319;-64
2022/11/22 10:51:53;;;;;;;4.30;1.87;;;9.40;99.90;;;;;;5056566;28;20210;-64
2022/11/22 10:54:47;;;;;;;1.70;1.60;;;9.40;99.90;;;;;;5067253;28;20227;-64
2022/11/22 10:57:48;;;;;;;4.07;1.20;;;9.40;99.90;;;;;;5067634;28;20178;-63
2022/11/22 11:00:20;;;;;;;3.13;1.07;;;9.40;99.90;;;;;;5034565;28;20185;-64
2022/11/22 11:03:12;;;;;;;1.50;1.17;;;9.30;99.90;;;;;;5057933;28;20666;-63
2022/11/22 11:05:46;;;;;;;1.10;1.10;;;9.10;99.90;;;;;;5057503;28;20204;-67
2022/11/22 11:08:36;;;;;;;1.47;1.37;;;9.10;99.90;;;;;;5064784;28;20177;-64
2022/11/22 11:11:03;;;;;;;3.33;1.33;;;9.20;99.90;;;;;;5059767;28;20554;-63
2022/11/22 11:13:38;;;;;;;1.40;1.00;;;9.10;99.90;;;;;;5062807;28;20247;-64
2022/11/22 11:16:09;;;;;;;2.17;1.40;;;9.20;99.90;;;;;;5055090;28;20177;-64
2022/11/22 11:18:55;;;;;;;1.07;0.90;;;9.20;99.90;;;;;;5057917;28;20166;-64
2022/11/22 11:21:21;;;;;;;1.80;1.23;;;9.30;99.90;;;;;;5060866;28;20185;-63
2022/11/22 11:23:47;;;;;;;1.47;1.10;;;9.40;99.90;;;;;;5061646;28;20188;-64
2022/11/22 11:26:20;;;;;;;1.80;1.10;;;9.40;99.90;;;;;;5060618;28;20592;-63
2022/11/22 11:28:46;;;;;;;2.30;0.70;;;9.30;99.90;;;;;;5055825;28;20265;-63
2022/11/22 11:31:12;;;;;;;1.90;1.03;;;9.30;99.90;;;;;;5057583;28;20228;-63
2022/11/22 11:33:41;;;;;;;1.20;1.10;;;9.10;99.90;;;;;;5063778;28;20210;-64
2022/11/22 11:36:17;;;;;;;1.20;1.10;;;9.10;99.90;;;;;;5055190;28;20186;-65
2022/11/22 11:38:43;;;;;;;3.93;1.30;;;9.00;99.90;;;;;;5060092;28;20230;-64
2022/11/22 11:41:19;;;;;;;1.13;1.03;;;9.00;99.90;;;;;;5055541;28;20577;-63
2022/11/22 11:43:45;;;;;;;1.17;1.07;;;9.10;99.90;;;;;;5065559;28;20187;-64
2022/11/22 11:46:20;;;;;;;1.87;1.73;;;9.20;99.90;;;;;;5074038;28;20724;-65
2022/11/22 11:48:47;;;;;;;1.83;1.67;;;9.20;99.90;;;;;;5060950;28;20190;-63
2022/11/22 11:51:23;;;;;;;1.43;1.13;;;9.20;99.90;;;;;;5055050;28;20204;-65
2022/11/22 11:54:05;;;;;;;2.23;1.20;;;9.20;99.90;;;;;;5065226;28;20208;-63
2022/11/22 11:56:38;;;;;;;1.20;1.20;;;9.30;99.90;;;;;;5060236;28;20178;-63
2022/11/22 11:59:15;;;;;;;1.30;1.30;;;9.40;99.90;;;;;;5054219;28;20583;-64
2022/11/22 12:01:54;;;;;;;1.07;1.00;;;9.40;99.90;;;;;;5053525;28;20242;-64
2022/11/22 12:04:26;;;;;;;1.30;1.00;;;9.40;99.90;;;;;;5054267;28;20181;-64
2022/11/22 12:06:54;;;;;;;0.70;0.70;;;9.60;99.90;;;;;;5054675;28;20273;-64
2022/11/22 12:09:35;;;;;;;1.83;1.83;;;9.60;99.90;;;;;;5054450;28;20231;-64
2022/11/22 12:12:34;;;;;;;3.50;1.10;;;9.70;99.90;;;;;;5061289;28;20228;-65
2022/11/22 12:15:13;;;;;;;1.13;1.03;;;9.70;99.90;;;;;;5054027;28;20190;-65
2022/11/22 12:17:59;;;;;;;5.13;1.57;;;9.70;99.90;;;;;;5054268;28;20178;-62
2022/11/22 12:20:34;;;;;;;0.97;0.90;;;9.80;99.90;;;;;;5070107;28;20178;-63
2022/11/22 12:23:24;;;;;;;1.10;1.10;;;9.80;99.90;;;;;;5056221;28;20231;-63
2022/11/22 12:25:54;;;;;;;1.33;1.23;;;9.80;99.90;;;;;;5069205;28;20185;-62
2022/11/22 12:28:23;;;;;;;3.07;1.60;;;9.80;99.90;;;;;;5063294;28;20189;-64
2022/11/22 12:31:00;;;;;;;1.07;1.00;;;9.80;99.90;;;;;;5068633;28;20185;-64
2022/11/22 12:33:55;;;;;;;1.80;1.07;;;9.80;99.90;;;;;;5058025;28;20205;-64
2022/11/22 12:36:28;;;;;;;1.00;1.00;;;9.90;99.90;;;;;;5054636;28;20182;-63
2022/11/22 12:38:56;;;;;;;1.97;1.60;;;9.90;99.90;;;;;;5061010;28;20181;-64
2022/11/22 12:41:26;;;;;;;4.03;1.60;;;10.10;99.90;;;;;;5056896;28;20281;-64
2022/11/22 12:44:01;;;;;;;4.50;1.20;;;10.10;99.90;;;;;;5056827;28;20294;-63
2022/11/22 12:46:36;;;;;;;0.97;0.97;;;10.20;99.90;;;;;;5062711;28;20200;-63
2022/11/22 12:49:14;;;;;;;1.07;1.03;;;10.30;99.90;;;;;;5055281;28;20182;-65
2022/11/22 12:52:06;;;;;;;1.30;1.20;;;10.30;99.90;;;;;;5074792;28;20177;-66
2022/11/22 12:54:39;;;;;;;0.97;0.97;;;10.20;99.90;;;;;;5070427;28;20553;-66
2022/11/22 12:57:18;;;;;;;1.27;1.23;;;10.10;99.90;;;;;;5069177;28;20696;-66
2022/11/22 13:00:03;;;;;;;1.33;1.10;;;10.20;99.90;;;;;;5053779;28;20614;-66
2022/11/22 13:02:39;;;;;;;3.50;1.53;;;10.20;99.90;;;;;;5052936;28;20178;-67
2022/11/22 13:05:35;;;;;;;3.70;1.30;;;10.00;99.90;;;;;;5052512;28;20231;-64
2022/11/22 13:08:19;;;;;;;1.77;1.50;;;9.90;99.90;;;;;;4706061;28;10000083;-65
2022/11/22 13:11:01;;;;;;;1.57;1.47;;;9.90;99.90;;;;;;5049577;28;20197;-64
2022/11/22 13:13:30;;;;;;;1.83;1.40;;;9.80;99.90;;;;;;5056999;28;20217;-65
2022/11/22 13:15:59;;;;;;;1.50;1.40;;;9.80;99.90;;;;;;5055136;28;20632;-66
2022/11/22 13:18:29;;;;;;;2.07;1.70;;;9.80;99.90;;;;;;5051728;28;20664;-64
2022/11/22 13:21:17;;;;;;;2.13;1.90;;;9.80;99.90;;;;;;5055519;28;20193;-64
2022/11/22 13:24:01;;;;;;;2.43;1.90;;;9.90;99.90;;;;;;5053334;28;20667;-66